Historyczne dane pomiarowe

Dodano dane terminowe – wersja testowa.

Dane z okresu 1951-2019

Wersja bazy: 1.34 [2019-03-16, lista zmian], aktualizacja planowana na 2019-04-15

Dane meteo z obszaru Polski uzyskane na podstawie danych udostępnionych przez Instytut Meteorologii i Gospodarki Wodnej – Państwowy Instytut Badawczy.

 

Wybierz Datę:    

       

TemperaturaWilgotnośćZachmurzenieWiatrCiśnienieWidzialnośćZjawiska
 Data    tng td wb rh cc ccl cl cm ch dir g1 g2 mslp ppp      
1999-07-30 00:00:00 17.8--- 8.8 12.856wxwxwx3wx--1020.6 997.8 0.0---wx
1999-07-30 01:00:00 17.2--- 8.9 12.658wxwx3wx--1020.6 997.8----wx
1999-07-30 02:00:00 16.2--- 9.2 12.363wxwx2wx--1020.6 997.7----wx
1999-07-30 03:00:00 16.1--- 7.8 11.658wxwx3wx--1020.6 997.7----wx
1999-07-30 04:00:00 15.9--- 8.6 11.962wxwxwx2wx--1020.4 997.5----wx
1999-07-30 05:00:00 17.6--- 9.4 13.059wxwxwx2wx--1020.2 997.4----wx
1999-07-30 06:00:00 19.1--- 8.7 13.351wxwxwx2wx--1020.0 997.3 0.0---wx
1999-07-30 07:00:00 20.2--- 8.6 13.747wxwxwx2wx--1020.0 997.4----wx
1999-07-30 08:00:00 21.7--- 8.4 14.242wxwxwx3wx--1019.9 997.4----wx
1999-07-30 09:00:00 22.1--- 8.7 14.542wxwxwx4wx--1019.8 997.4----wx
1999-07-30 10:00:00 23.6--- 8.5 15.038wxwxwx4wx--1019.5 997.2----wx
1999-07-30 11:00:00 23.6--- 7.8 14.736wxwxwxwx3wx--1019.1 996.8----wx
1999-07-30 12:00:00 25.2--- 9.0 15.836wxwxwxwx3wx--1018.7 996.5 0.0---wx
1999-07-30 13:00:00 25.2--- 8.0 15.433wxwxwxwx4wx--1018.2 996.0----wx
1999-07-30 14:00:00 25.5--- 9.4 16.136wxwxwxwx3wx--1017.8 995.7----wx
1999-07-30 15:00:00 25.6--- 8.4 15.734wxwxwxwx3wx--1017.4 995.3----wx
1999-07-30 16:00:00 24.0--- 9.6 15.640wxwxwxwx3wx--1017.4 995.2----wx
1999-07-30 17:00:00 25.2--- 9.2 15.936wxwxwx1wx--1016.9 994.8----wx
1999-07-30 18:00:00 24.1--- 9.0 15.438wxwxwxwx1wx--1017.1 994.9 0.0---wx
1999-07-30 19:00:00 23.2--- 8.4 14.839wxwxwxwx1wx--1017.4 995.1----wx
1999-07-30 20:00:00 22.5--- 7.9 14.339wxwxwxwx2wx--1017.9 995.5----wx
1999-07-30 21:00:00 21.6--- 8.0 14.042wxwxwxwx2wx--1017.9 995.5----wx
1999-07-30 22:00:00 20.2--- 8.4 13.647wxwxwx4wx--1018.2 995.7----wx
1999-07-30 23:00:00 20.6--- 7.8 13.544wxwxwx3wx--1018.2 995.7----wx

 

Źródłem pochodzenia danych jest Instytut Meteorologii i Gospodarki Wodnej – Państwowy Instytut Badawczy. Dane Instytutu Meteorologii i Gospodarki Wodnej – Państwowego Instytutu Badawczego zostały przetworzone.

Dane źródłowe można odnaleźć na stronie https://dane.imgw.pl